Detroit, MI

1:00 PM EST on February 11, 2016 (GMT -0500)
Near I-94/275 | | Change Station
CLOSE
Current Station
Personal Weather Station
Location: Romulus, MI
Elevation: 679 ft
Nearby Weather Stations

Elev 679 ft 42.22 °N, 83.40 °W | Updated 4 seconds ago

Light Snow
Light Snow
19.1 °F
Feels Like 8 °F
N
9.0
Wind Variable Wind from NW
Gusts 14.0 mph

Today
High -- | Low -- °F
--% Chance of Precip.
Yesterday
High -- | Low -- °F
Precip. -- in
Pressure 30.26 in
Visibility 9.0 miles
Clouds Overcast 4000 ft
Windchill 8 °F
Dew Point 7 °F
Humidity 58%
Rainfall 0.00 in
Snow Depth Not available.
7:35 AM 6:00 PM
Waxing Crescent, 13% visible
METAR KDTW 111753Z 31011KT 9SM -SN OVC040 M07/M16 A3022 RMK AO2 SNB48 SLP246 P0000 60000 T10721156 11072 21117 50011
Pressure 30.26 in
Visibility 9.0 miles
Clouds Overcast 4000 ft
Windchill 8 °F
Dew Point 7 °F
Humidity 58%
Rainfall 0.00 in
Snow Depth Not available.
7:35 AM 6:00 PM
Waxing Crescent, 13% visible
METAR KDTW 111753Z 31011KT 9SM -SN OVC040 M07/M16 A3022 RMK AO2 SNB48 SLP246 P0000 60000 T10721156 11072 21117 50011

10-Day Weather Forecast

Almanac

Astronomy

Feb. 11, 2016 Rise Set
Actual Time
Civil Twilight
Nautical Twilight
Astronomical Twilight
Moon
Length of Visible Light
Length of Day
Tomorrow will be .
, % of the Moon is Illuminated

Today's Extremes

State Highs State Lows

Community

WunderPhotos

Upload Photos

1,892,113 photos uploaded!

WunderBlog® & News

Nearby

Air Quality

  Air Quality AQ Index Pollutant
Not available.

Snow Depth

Station Depth Elevation

Earthquake Activity

City Distance Mag. Time & Date
Minimum magnitude displayed is 2.5.

Coastal Water Temperatures

Place Temperature

Stations

Nearby Weather Stations

Station Location Temp. Windchill Dew Point Humidity Wind Precip. Elev Updated Type
                   

Watches & Warnings

There are currently no watches in effect.